Time;durP1;ratioP1;P1;durP2;ratioP2;P2;SDS_P1;SDS_P2;PMS_P1;PMS_P2;Temp;Humidity;BMP_temperature;BMP_pressure;BME280_temperature;BME280_humidity;BME280_pressure;Samples;Min_cycle;Max_cycle;Signal;HPM_P1;HPM_P2
2023/04/23 00:00:42;;;;;;;;;;;;;;;6.72;59.98;100315.90;215942;1254;60453;-74
2023/04/23 00:05:36;;;;;;;;;;;;;;;6.69;60.12;100314.79;215650;1254;67206;-74
2023/04/23 00:10:30;;;;;;;;;;;;;;;6.62;60.20;100311.17;216006;1254;60483;-73
2023/04/23 00:15:22;;;;;;;;;;;;;;;6.55;60.40;100309.42;215945;1254;73762;-73
2023/04/23 00:20:17;;;;;;;;;;;;;;;6.52;60.44;100306.58;215831;1254;60544;-73
2023/04/23 00:25:10;;;;;;;;;;;;;;;6.46;60.61;100301.98;215773;1256;60559;-74
2023/04/23 00:30:04;;;;;;;;;;;;;;;6.40;60.68;100304.03;215733;1253;68003;-73
2023/04/23 00:34:57;;;;;;;;;;;;;;;6.35;60.88;100301.84;215687;1254;60513;-73
2023/04/23 00:39:50;;;;;;;;;;;;;;;6.33;60.96;100301.59;215838;1254;60550;-73
2023/04/23 00:44:43;;;;;;;;;;;;;;;6.25;61.08;100298.30;215796;1254;60540;-73
2023/04/23 00:49:38;;;;;;;;;;;;;;;6.19;61.10;100295.18;215823;1254;60460;-74
2023/04/23 00:54:30;;;;;;;;;;;;;;;6.11;61.34;100298.59;215786;1254;66959;-73
2023/04/23 00:59:27;;;;;;;;;;;;;;;6.08;61.60;100301.29;215665;1253;60458;-74
2023/04/23 01:04:21;;;;;;;;;;;;;;;6.07;61.61;100295.21;215697;1254;73826;-74
2023/04/23 01:09:16;;;;;;;;;;;;;;;6.01;61.84;100294.70;215903;1254;73816;-73
2023/04/23 01:14:10;;;;;;;;;;;;;;;5.97;61.84;100297.31;215867;1254;60570;-73
2023/04/23 01:19:04;;;;;;;;;;;;;;;5.92;62.04;100299.90;215821;1254;67025;-73
2023/04/23 01:23:57;;;;;;;;;;;;;;;5.86;62.12;100303.35;215752;1254;60566;-74
2023/04/23 01:28:51;;;;;;;;;;;;;;;5.80;62.26;100301.12;215776;1254;72604;-73
2023/04/23 01:33:44;;;;;;;;;;;;;;;5.73;62.30;100300.55;215832;1254;71334;-73
2023/04/23 01:38:38;;;;;;;;;;;;;;;5.68;62.51;100296.45;215842;1253;60424;-73
2023/04/23 01:43:32;;;;;;;;;;;;;;;5.62;62.61;100300.90;215798;1255;65529;-73
2023/04/23 01:48:25;;;;;;;;;;;;;;;5.53;62.77;100301.52;215740;1253;60425;-74
2023/04/23 01:53:18;;;;;;;;;;;;;;;5.51;63.10;100299.73;215841;1254;71713;-73
2023/04/23 01:58:11;;;;;;;;;;;;;;;5.50;63.03;100298.32;216265;1254;61000;-73
2023/04/23 02:03:04;;;;;;;;;;;;;;;5.45;63.21;100295.76;215876;1254;60428;-73
2023/04/23 02:07:58;;;;;;;;;;;;;;;5.41;63.17;100301.30;216379;1253;70488;-74
2023/04/23 02:12:50;;;;;;;;;;;;;;;5.34;63.41;100300.41;215955;1254;60544;-74
2023/04/23 02:17:43;;;;;;;;;;;;;;;5.27;63.56;100301.70;215815;1254;60415;-73
2023/04/23 02:22:39;;;;;;;;;;;;;;;5.22;63.77;100296.74;215772;1257;60498;-73
2023/04/23 02:27:32;;;;;;;;;;;;;;;5.17;63.87;100297.27;215792;1257;60569;-73
2023/04/23 02:32:26;;;;;;;;;;;;;;;5.17;63.99;100298.83;215497;1253;60594;-73
2023/04/23 02:37:20;;;;;;;;;;;;;;;5.18;64.15;100295.93;215630;1257;60614;-73
2023/04/23 02:42:13;;;;;;;;;;;;;;;5.16;64.07;100295.54;215583;1254;72440;-73
2023/04/23 02:47:06;;;;;;;;;;;;;;;5.10;63.88;100291.41;215638;1253;71339;-73
2023/04/23 02:51:58;;;;;;;;;;;;;;;5.01;63.98;100290.40;215640;1254;60492;-74
2023/04/23 02:56:51;;;;;;;;;;;;;;;4.92;64.40;100291.34;215491;1254;60510;-73
2023/04/23 03:01:44;;;;;;;;;;;;;;;4.86;64.47;100296.43;215604;1253;60546;-74
2023/04/23 03:06:38;;;;;;;;;;;;;;;4.82;64.64;100296.14;215470;1253;60578;-74
2023/04/23 03:11:31;;;;;;;;;;;;;;;4.78;64.62;100298.07;215628;1253;71352;-73
2023/04/23 03:16:24;;;;;;;;;;;;;;;4.73;64.93;100296.52;215787;1254;60463;-73
2023/04/23 03:21:18;;;;;;;;;;;;;;;4.69;64.79;100296.05;216256;1254;65643;-73
2023/04/23 03:26:11;;;;;;;;;;;;;;;4.65;64.82;100294.01;215516;1254;61138;-74
2023/04/23 03:31:03;;;;;;;;;;;;;;;4.63;65.07;100293.44;215658;1254;60640;-73
2023/04/23 03:35:57;;;;;;;;;;;;;;;4.62;65.04;100294.27;215513;1253;60512;-73
2023/04/23 03:40:52;;;;;;;;;;;;;;;4.58;65.25;100288.81;215656;1253;60553;-74
2023/04/23 03:45:46;;;;;;;;;;;;;;;4.57;65.31;100288.11;215674;1253;67416;-73
2023/04/23 03:50:39;;;;;;;;;;;;;;;4.63;65.50;100291.88;215585;1254;60437;-74
2023/04/23 03:55:44;;;;;;;;;;;;;;;4.64;65.37;100289.00;215894;1254;75636;-73
2023/04/23 04:00:37;;;;;;;;;;;;;;;4.78;65.44;100290.86;215701;1253;71484;-73
2023/04/23 04:05:30;;;;;;;;;;;;;;;5.26;65.28;100290.70;215553;1253;60623;-74
2023/04/23 04:10:23;;;;;;;;;;;;;;;5.59;64.73;100290.52;215618;1254;60479;-74
2023/04/23 04:15:18;;;;;;;;;;;;;;;5.69;64.60;100291.84;215737;1254;60466;-74
2023/04/23 04:20:11;;;;;;;;;;;;;;;5.73;64.41;100289.21;215674;1253;73855;-73
2023/04/23 04:25:05;;;;;;;;;;;;;;;5.62;64.55;100289.90;215656;1253;71589;-74
2023/04/23 04:29:58;;;;;;;;;;;;;;;5.55;64.70;100288.69;215869;1253;60441;-73
2023/04/23 04:34:51;;;;;;;;;;;;;;;5.51;64.85;100287.86;215803;1257;60553;-74
2023/04/23 04:39:44;;;;;;;;;;;;;;;5.55;64.75;100283.33;215830;1254;60459;-74
2023/04/23 04:44:37;;;;;;;;;;;;;;;5.54;64.91;100286.58;215839;1254;60572;-73
2023/04/23 04:49:31;;;;;;;;;;;;;;;5.54;65.23;100288.12;215672;1253;72636;-73
2023/04/23 04:54:24;;;;;;;;;;;;;;;5.60;65.32;100291.23;215813;1254;60404;-74
2023/04/23 04:59:17;;;;;;;;;;;;;;;5.74;65.35;100290.42;215792;1253;60445;-74
2023/04/23 05:04:10;;;;;;;;;;;;;;;5.80;65.40;100291.46;215677;1254;69922;-73
2023/04/23 05:09:04;;;;;;;;;;;;;;;5.87;65.62;100288.75;215794;1253;75539;-74
2023/04/23 05:13:56;;;;;;;;;;;;;;;6.00;65.81;100293.80;215888;1254;63471;-73
2023/04/23 05:18:50;;;;;;;;;;;;;;;6.15;66.10;100290.95;215843;1254;60470;-74
2023/04/23 05:23:43;;;;;;;;;;;;;;;6.32;66.19;100290.39;215806;1253;67063;-74
2023/04/23 05:28:36;;;;;;;;;;;;;;;6.50;66.31;100286.94;215811;1253;60467;-74
2023/04/23 05:33:30;;;;;;;;;;;;;;;6.71;66.62;100280.55;215694;1255;74259;-73
2023/04/23 05:38:34;;;;;;;;;;;;;;;7.00;66.63;100280.60;215832;1256;73515;-73
2023/04/23 05:43:27;;;;;;;;;;;;;;;7.28;66.65;100282.99;215895;1254;60466;-73
2023/04/23 05:48:19;;;;;;;;;;;;;;;7.62;66.29;100280.31;215893;1254;60459;-74
2023/04/23 05:53:12;;;;;;;;;;;;;;;8.14;65.92;100275.70;215882;1253;60469;-74
2023/04/23 05:58:05;;;;;;;;;;;;;;;8.46;65.36;100274.93;215848;1254;60451;-73
2023/04/23 06:02:58;;;;;;;;;;;;;;;8.74;65.27;100264.92;215727;1254;60586;-73
2023/04/23 06:07:51;;;;;;;;;;;;;;;9.04;64.48;100264.03;215902;1256;69534;-73
2023/04/23 06:12:44;;;;;;;;;;;;;;;9.53;63.49;100262.15;215766;1254;60446;-74
2023/04/23 06:17:37;;;;;;;;;;;;;;;10.37;62.34;100258.52;215801;1253;60450;-73
2023/04/23 06:22:30;;;;;;;;;;;;;;;11.15;60.67;100258.86;215871;1253;60542;-74
2023/04/23 06:27:23;;;;;;;;;;;;;;;11.76;59.92;100259.94;215760;1256;60391;-73
2023/04/23 06:32:17;;;;;;;;;;;;;;;12.23;58.83;100251.64;215841;1253;61139;-74
2023/04/23 06:37:12;;;;;;;;;;;;;;;12.43;58.22;100248.90;215790;1253;66711;-73
2023/04/23 06:42:04;;;;;;;;;;;;;;;12.73;57.27;100248.60;215815;1253;60623;-74
2023/04/23 06:47:00;;;;;;;;;;;;;;;14.36;54.75;100242.38;215925;1253;73821;-74
2023/04/23 06:51:53;;;;;;;;;;;;;;;17.26;50.75;100233.55;215845;1253;72746;-74
2023/04/23 06:56:49;;;;;;;;;;;;;;;20.43;46.93;100229.44;215889;1253;60547;-74
2023/04/23 07:01:42;;;;;;;;;;;;;;;22.11;43.75;100216.36;215828;1254;66489;-74
2023/04/23 07:06:35;;;;;;;;;;;;;;;22.44;42.24;100215.77;215743;1256;60408;-75
2023/04/23 07:11:30;;;;;;;;;;;;;;;22.47;40.42;100221.14;215822;1256;60456;-74
2023/04/23 07:16:24;;;;;;;;;;;;;;;24.56;37.95;100219.73;215775;1254;74832;-74
2023/04/23 07:21:17;;;;;;;;;;;;;;;26.93;34.68;100214.48;215890;1253;61194;-75
2023/04/23 07:26:10;;;;;;;;;;;;;;;28.85;32.94;100212.90;215954;1253;60476;-75
2023/04/23 07:31:03;;;;;;;;;;;;;;;31.04;30.62;100210.83;215724;1254;60463;-75
2023/04/23 07:35:56;;;;;;;;;;;;;;;33.06;28.15;100209.33;215781;1254;60466;-75
2023/04/23 07:40:49;;;;;;;;;;;;;;;32.59;26.79;100205.87;215729;1253;60470;-74
2023/04/23 07:45:41;;;;;;;;;;;;;;;31.55;26.25;100199.11;215778;1253;60466;-74
2023/04/23 07:50:34;;;;;;;;;;;;;;;31.34;25.61;100197.29;215672;1256;60482;-75
2023/04/23 07:55:27;;;;;;;;;;;;;;;31.49;25.72;100197.36;215892;1257;60476;-74
2023/04/23 08:00:20;;;;;;;;;;;;;;;32.60;24.79;100192.04;215850;1254;61080;-75
2023/04/23 08:05:13;;;;;;;;;;;;;;;33.08;24.09;100189.83;215882;1253;60694;-75
2023/04/23 08:10:06;;;;;;;;;;;;;;;32.30;24.02;100193.59;215983;1253;60466;-74
2023/04/23 08:14:59;;;;;;;;;;;;;;;30.11;24.17;100189.98;215882;1254;60630;-75
2023/04/23 08:20:00;;;;;;;;;;;;;;;29.12;24.99;100188.30;215771;1253;60498;-75
2023/04/23 08:24:53;;;;;;;;;;;;;;;29.02;25.08;100184.03;215965;1253;73814;-74
2023/04/23 08:29:46;;;;;;;;;;;;;;;29.40;24.70;100178.92;215870;1254;60495;-75
2023/04/23 08:34:39;;;;;;;;;;;;;;;30.26;23.50;100170.41;215875;1256;60495;-75
2023/04/23 08:39:34;;;;;;;;;;;;;;;29.68;24.87;100176.23;215851;1253;60478;-75
2023/04/23 08:44:28;;;;;;;;;;;;;;;29.20;23.86;100174.35;215911;1253;60454;-75
2023/04/23 08:49:21;;;;;;;;;;;;;;;28.23;24.76;100165.55;215765;1253;72285;-75
2023/04/23 08:54:19;;;;;;;;;;;;;;;28.99;24.44;100165.61;215874;1253;73458;-75
2023/04/23 08:59:12;;;;;;;;;;;;;;;29.55;22.68;100161.95;215947;1253;60300;-75
2023/04/23 09:04:08;;;;;;;;;;;;;;;28.70;23.05;100156.15;215862;1253;65051;-75
2023/04/23 09:09:03;;;;;;;;;;;;;;;28.70;23.21;100158.31;215923;1253;60446;-75
2023/04/23 09:13:57;;;;;;;;;;;;;;;28.90;22.82;100152.09;215737;1253;72507;-75
2023/04/23 09:18:51;;;;;;;;;;;;;;;29.43;22.04;100149.73;215622;1253;143070;-75
2023/04/23 09:23:44;;;;;;;;;;;;;;;28.91;22.12;100147.09;216465;1253;60582;-75
2023/04/23 09:28:40;;;;;;;;;;;;;;;29.58;21.82;100141.75;215868;1253;68344;-75
2023/04/23 09:33:35;;;;;;;;;;;;;;;30.18;21.18;100141.80;215828;1253;61123;-75
2023/04/23 09:38:28;;;;;;;;;;;;;;;31.74;20.23;100140.65;215852;1256;73505;-75
2023/04/23 09:43:21;;;;;;;;;;;;;;;31.28;20.36;100136.23;215816;1253;73509;-75
2023/04/23 09:48:13;;;;;;;;;;;;;;;30.92;20.90;100132.52;215755;1253;60466;-75
2023/04/23 09:53:07;;;;;;;;;;;;;;;31.55;19.58;100126.16;215594;1254;60546;-75
2023/04/23 09:58:01;;;;;;;;;;;;;;;33.05;19.41;100126.42;215777;1256;60471;-74
2023/04/23 10:02:54;;;;;;;;;;;;;;;34.68;17.95;100121.55;215865;1256;73616;-74
2023/04/23 10:07:48;;;;;;;;;;;;;;;35.78;17.23;100112.33;215761;1253;71907;-75
2023/04/23 10:12:42;;;;;;;;;;;;;;;36.70;16.76;100110.84;215839;1256;60491;-74
2023/04/23 10:17:48;;;;;;;;;;;;;;;36.90;15.71;100105.57;215823;1254;67928;-74
2023/04/23 10:22:44;;;;;;;;;;;;;;;37.12;16.24;100094.80;215910;1257;60464;-74
2023/04/23 10:27:48;;;;;;;;;;;;;;;37.74;16.00;100086.80;215933;1255;74081;-74
2023/04/23 10:32:48;;;;;;;;;;;;;;;37.99;15.58;100092.82;215881;1257;72356;-74
2023/04/23 10:37:41;;;;;;;;;;;;;;;37.97;15.90;100082.55;215876;1254;60432;-75
2023/04/23 10:42:35;;;;;;;;;;;;;;;37.63;15.40;100075.38;215926;1256;67811;-74
2023/04/23 10:47:27;;;;;;;;;;;;;;;37.38;16.10;100069.93;215902;1253;60431;-74
2023/04/23 10:52:20;;;;;;;;;;;;;;;37.63;16.26;100065.82;216075;1253;60454;-75
2023/04/23 10:57:18;;;;;;;;;;;;;;;37.13;15.94;100065.84;216012;1256;73632;-75
2023/04/23 11:02:11;;;;;;;;;;;;;;;36.75;16.19;100057.13;215834;1253;60479;-74
2023/04/23 11:07:09;;;;;;;;;;;;;;;36.54;16.69;100048.61;216010;1253;67028;-74
2023/04/23 11:12:02;;;;;;;;;;;;;;;36.48;16.31;100044.80;215878;1253;60562;-75
2023/04/23 11:16:55;;;;;;;;;;;;;;;35.90;16.33;100042.86;216039;1253;73601;-75
2023/04/23 11:21:58;;;;;;;;;;;;;;;35.39;16.53;100041.88;215900;1256;71885;-74
2023/04/23 11:26:54;;;;;;;;;;;;;;;34.97;17.13;100037.17;215927;1253;60461;-75
2023/04/23 11:31:47;;;;;;;;;;;;;;;34.35;16.69;100031.61;215991;1254;67116;-75
2023/04/23 11:36:55;;;;;;;;;;;;;;;33.47;17.27;100024.79;215901;1253;60559;-74
2023/04/23 11:41:49;;;;;;;;;;;;;;;32.01;17.95;100027.83;215890;1256;75341;-74
2023/04/23 11:46:41;;;;;;;;;;;;;;;30.63;18.65;100032.64;215482;1256;71451;-74
2023/04/23 11:51:35;;;;;;;;;;;;;;;29.43;19.82;100019.95;215668;1253;60416;-74
2023/04/23 11:56:30;;;;;;;;;;;;;;;29.00;20.75;100015.02;215769;1253;67030;-74
2023/04/23 12:01:23;;;;;;;;;;;;;;;28.64;20.81;100012.33;215600;1253;60437;-74
2023/04/23 12:06:17;;;;;;;;;;;;;;;28.25;21.22;100013.92;215477;1253;60466;-74
2023/04/23 12:11:12;;;;;;;;;;;;;;;28.19;21.66;100008.48;215905;1253;72900;-74
2023/04/23 12:16:05;;;;;;;;;;;;;;;28.12;21.43;100007.15;215842;1253;60557;-74
2023/04/23 12:21:07;;;;;;;;;;;;;;;27.90;21.32;99999.52;215433;1254;65307;-74
2023/04/23 12:25:59;;;;;;;;;;;;;;;27.78;21.43;100001.55;215756;1258;60533;-75
2023/04/23 12:30:52;;;;;;;;;;;;;;;27.53;21.47;99993.96;215761;1257;60454;-74
2023/04/23 12:35:46;;;;;;;;;;;;;;;27.33;22.12;99988.42;215788;1253;60560;-74
2023/04/23 12:40:40;;;;;;;;;;;;;;;27.44;21.91;99976.41;215889;1253;60458;-74
2023/04/23 12:45:37;;;;;;;;;;;;;;;27.32;22.05;99970.54;215830;1253;66643;-74
2023/04/23 12:50:30;;;;;;;;;;;;;;;27.24;21.92;99971.04;215783;1256;60476;-74
2023/04/23 12:55:22;;;;;;;;;;;;;;;27.13;22.19;99971.08;215912;1253;73582;-74
2023/04/23 13:00:16;;;;;;;;;;;;;;;27.06;21.72;99962.05;215859;1258;60458;-74
2023/04/23 13:05:09;;;;;;;;;;;;;;;27.06;22.21;99959.77;215818;1256;60531;-74
2023/04/23 13:10:01;;;;;;;;;;;;;;;27.07;21.95;99948.53;215832;1253;60457;-75
2023/04/23 13:14:54;;;;;;;;;;;;;;;27.05;22.02;99946.34;215797;1253;60540;-75
2023/04/23 13:19:47;;;;;;;;;;;;;;;26.99;22.24;99940.09;215959;1253;60463;-74
2023/04/23 13:24:40;;;;;;;;;;;;;;;26.93;22.24;99928.02;216008;1256;61060;-74
2023/04/23 13:29:33;;;;;;;;;;;;;;;26.88;22.25;99923.05;215911;1253;60517;-74
2023/04/23 13:34:25;;;;;;;;;;;;;;;26.85;22.30;99915.73;215972;1257;60520;-75
2023/04/23 13:39:19;;;;;;;;;;;;;;;26.88;22.53;99917.87;215895;1254;60540;-74
2023/04/23 13:44:12;;;;;;;;;;;;;;;26.68;22.34;99910.57;215923;1253;60498;-74
2023/04/23 13:49:06;;;;;;;;;;;;;;;26.65;22.41;99908.99;215903;1253;73674;-74
2023/04/23 13:53:58;;;;;;;;;;;;;;;26.70;22.50;99899.81;215885;1253;60415;-74
2023/04/23 13:58:51;;;;;;;;;;;;;;;26.50;22.27;99888.23;215900;1253;60459;-74
2023/04/23 14:03:46;;;;;;;;;;;;;;;26.56;22.49;99884.81;215721;1256;60467;-74
2023/04/23 14:08:38;;;;;;;;;;;;;;;26.50;22.41;99876.13;215885;1255;72321;-75
2023/04/23 14:13:32;;;;;;;;;;;;;;;26.53;23.12;99872.36;215538;1259;60454;-74
2023/04/23 14:18:26;;;;;;;;;;;;;;;26.51;22.64;99872.33;215481;1254;60462;-73
2023/04/23 14:23:25;;;;;;;;;;;;;;;26.38;22.73;99866.43;215624;1256;65860;-74
2023/04/23 14:28:24;;;;;;;;;;;;;;;26.27;22.50;99861.73;215529;1254;60531;-74
2023/04/23 14:33:16;;;;;;;;;;;;;;;26.06;22.88;99861.48;215724;1254;72640;-74
2023/04/23 14:38:09;;;;;;;;;;;;;;;26.05;23.28;99859.55;216011;1259;60447;-74
2023/04/23 14:43:02;;;;;;;;;;;;;;;25.91;22.89;99856.62;215570;1259;60460;-74
2023/04/23 14:48:07;;;;;;;;;;;;;;;25.84;23.05;99857.59;215652;1256;68516;-74
2023/04/23 14:53:02;;;;;;;;;;;;;;;25.66;22.92;99853.52;215666;1259;60667;-74
2023/04/23 14:57:55;;;;;;;;;;;;;;;25.47;22.92;99854.79;215286;1253;74033;-74
2023/04/23 15:02:47;;;;;;;;;;;;;;;25.36;23.48;99849.05;215073;1259;60456;-74
2023/04/23 15:07:40;;;;;;;;;;;;;;;25.45;23.68;99847.81;215462;1254;60535;-74
2023/04/23 15:12:38;;;;;;;;;;;;;;;25.40;23.34;99845.81;215631;1253;60557;-73
2023/04/23 15:17:31;;;;;;;;;;;;;;;25.25;23.56;99842.77;215696;1253;60456;-73
2023/04/23 15:22:24;;;;;;;;;;;;;;;25.14;23.57;99832.20;215623;1253;73610;-73
2023/04/23 15:27:17;;;;;;;;;;;;;;;25.07;23.67;99833.34;215408;1253;60488;-74
2023/04/23 15:32:10;;;;;;;;;;;;;;;25.05;24.02;99831.66;215778;1253;60427;-74
2023/04/23 15:37:03;;;;;;;;;;;;;;;24.85;23.85;99832.96;215730;1259;67965;-74
2023/04/23 15:41:57;;;;;;;;;;;;;;;24.69;23.96;99829.58;215805;1254;60536;-75
2023/04/23 15:46:49;;;;;;;;;;;;;;;24.57;24.26;99821.23;217130;1257;75324;-75
2023/04/23 15:51:42;;;;;;;;;;;;;;;24.40;24.31;99817.70;215851;1257;60508;-74
2023/04/23 15:56:36;;;;;;;;;;;;;;;24.31;24.60;99813.61;215844;1254;60188;-74
2023/04/23 16:01:29;;;;;;;;;;;;;;;24.19;24.73;99806.64;216899;1253;66528;-75
2023/04/23 16:06:22;;;;;;;;;;;;;;;24.03;24.80;99806.61;218368;1257;59717;-75
2023/04/23 16:11:15;;;;;;;;;;;;;;;23.81;25.28;99802.42;217915;1254;60488;-75
2023/04/23 16:16:08;;;;;;;;;;;;;;;23.64;25.64;99805.96;217693;1257;59142;-75
2023/04/23 16:21:02;;;;;;;;;;;;;;;23.50;25.73;99804.02;218394;1257;58904;-75
2023/04/23 16:25:56;;;;;;;;;;;;;;;23.36;26.25;99806.66;216776;1258;60939;-75
2023/04/23 16:30:48;;;;;;;;;;;;;;;23.17;26.62;99803.88;215699;1254;60903;-74
2023/04/23 16:35:42;;;;;;;;;;;;;;;22.94;26.70;99802.36;218297;1253;73700;-75
2023/04/23 16:40:35;;;;;;;;;;;;;;;22.69;26.79;99797.55;218286;1255;72475;-75
2023/04/23 16:45:28;;;;;;;;;;;;;;;22.51;27.44;99798.57;216267;1254;62017;-75
2023/04/23 16:50:21;;;;;;;;;;;;;;;22.27;27.83;99799.33;215944;1259;60454;-75
2023/04/23 16:55:15;;;;;;;;;;;;;;;21.97;28.90;99790.42;215850;1258;60497;-75
2023/04/23 17:00:09;;;;;;;;;;;;;;;21.56;29.30;99787.13;215924;1254;72780;-74
2023/04/23 17:05:02;;;;;;;;;;;;;;;21.17;30.07;99791.91;215890;1258;70803;-74
2023/04/23 17:09:54;;;;;;;;;;;;;;;20.80;30.57;99794.25;215924;1253;60454;-74
2023/04/23 17:14:47;;;;;;;;;;;;;;;20.42;31.40;99787.80;215543;1258;60442;-75
2023/04/23 17:19:40;;;;;;;;;;;;;;;20.08;31.97;99792.77;216768;1256;59309;-74
2023/04/23 17:24:33;;;;;;;;;;;;;;;19.76;32.69;99785.84;215589;1258;60508;-74
2023/04/23 17:29:28;;;;;;;;;;;;;;;19.44;32.85;99783.91;215413;1255;71498;-74
2023/04/23 17:34:21;;;;;;;;;;;;;;;19.14;33.50;99782.31;215240;1255;60486;-73
2023/04/23 17:39:18;;;;;;;;;;;;;;;18.85;33.96;99790.61;215354;1255;60467;-73
2023/04/23 17:44:11;;;;;;;;;;;;;;;18.57;34.36;99784.27;215549;1254;60509;-73
2023/04/23 17:49:04;;;;;;;;;;;;;;;18.28;35.05;99784.44;215453;1253;60464;-74
2023/04/23 17:53:56;;;;;;;;;;;;;;;18.03;35.47;99784.28;215118;1255;60575;-74
2023/04/23 17:58:51;;;;;;;;;;;;;;;17.79;35.74;99781.95;215365;1257;61430;-74
2023/04/23 18:03:46;;;;;;;;;;;;;;;17.53;36.19;99779.67;215391;1255;60572;-74
2023/04/23 18:08:40;;;;;;;;;;;;;;;17.29;36.78;99782.55;215743;1254;60907;-74
2023/04/23 18:13:37;;;;;;;;;;;;;;;17.07;36.82;99789.77;215758;1254;73877;-74
2023/04/23 18:18:31;;;;;;;;;;;;;;;16.84;37.26;99790.66;215746;1255;73756;-74
2023/04/23 18:23:25;;;;;;;;;;;;;;;16.61;37.70;99791.50;215603;1254;61071;-74
2023/04/23 18:28:17;;;;;;;;;;;;;;;16.40;38.09;99793.20;215584;1257;66780;-74
2023/04/23 18:33:26;;;;;;;;;;;;;;;16.20;38.43;99796.60;215528;1254;60466;-75
2023/04/23 18:38:30;;;;;;;;;;;;;;;16.01;38.80;99795.58;215859;1254;73789;-74
2023/04/23 18:43:24;;;;;;;;;;;;;;;15.84;39.39;99793.28;215663;1254;70959;-74
2023/04/23 18:48:32;;;;;;;;;;;;;;;15.70;39.74;99797.02;215814;1255;61795;-74
2023/04/23 18:53:25;;;;;;;;;;;;;;;15.49;40.04;99791.29;215792;1254;68213;-74
2023/04/23 18:58:18;;;;;;;;;;;;;;;15.32;40.44;99795.42;215668;1254;61295;-73
2023/04/23 19:03:11;;;;;;;;;;;;;;;15.15;40.54;99795.18;215725;1254;61251;-73
2023/04/23 19:08:18;;;;;;;;;;;;;;;15.01;40.84;99796.11;215615;1254;74075;-73
2023/04/23 19:13:11;;;;;;;;;;;;;;;14.86;41.22;99796.51;215610;1257;61240;-73
2023/04/23 19:18:04;;;;;;;;;;;;;;;14.73;41.43;99796.02;215475;1254;61413;-73
2023/04/23 19:22:57;;;;;;;;;;;;;;;14.58;41.63;99790.96;215505;1254;61247;-74
2023/04/23 19:27:50;;;;;;;;;;;;;;;14.45;42.09;99792.36;215523;1253;61306;-74
2023/04/23 19:32:43;;;;;;;;;;;;;;;14.30;42.45;99788.02;215688;1254;70441;-74
2023/04/23 19:37:36;;;;;;;;;;;;;;;14.17;42.70;99785.41;215646;1254;61894;-74
2023/04/23 19:42:31;;;;;;;;;;;;;;;14.03;42.81;99782.09;215659;1257;61286;-74
2023/04/23 19:47:23;;;;;;;;;;;;;;;13.90;43.31;99780.50;215811;1254;61358;-74
2023/04/23 19:52:18;;;;;;;;;;;;;;;13.79;43.46;99780.98;215856;1254;61365;-74
2023/04/23 19:57:10;;;;;;;;;;;;;;;13.64;43.71;99781.65;215843;1257;71229;-74
2023/04/23 20:02:03;;;;;;;;;;;;;;;13.53;43.99;99783.51;215873;1254;61330;-74
2023/04/23 20:06:56;;;;;;;;;;;;;;;13.38;44.09;99779.30;215812;1254;61294;-74
2023/04/23 20:11:49;;;;;;;;;;;;;;;13.29;44.54;99778.13;215758;1254;61269;-73
2023/04/23 20:16:42;;;;;;;;;;;;;;;13.20;44.83;99773.17;215744;1256;61268;-75
2023/04/23 20:21:35;;;;;;;;;;;;;;;13.11;45.21;99773.25;215839;1254;61799;-74
2023/04/23 20:26:28;;;;;;;;;;;;;;;12.98;45.45;99775.61;215780;1254;61361;-74
2023/04/23 20:31:21;;;;;;;;;;;;;;;12.87;45.51;99772.39;215850;1254;61296;-73
2023/04/23 20:36:14;;;;;;;;;;;;;;;12.76;45.64;99769.00;215808;1254;61274;-74
2023/04/23 20:41:09;;;;;;;;;;;;;;;12.64;46.41;99769.26;215833;1254;73566;-74
2023/04/23 20:46:02;;;;;;;;;;;;;;;12.50;47.35;99767.60;215953;1254;73461;-73
2023/04/23 20:50:56;;;;;;;;;;;;;;;12.36;48.27;99766.99;215890;1254;61271;-75
2023/04/23 20:55:48;;;;;;;;;;;;;;;12.22;48.46;99770.36;215869;1254;67932;-74
2023/04/23 21:00:41;;;;;;;;;;;;;;;12.15;48.24;99773.17;215828;1254;61353;-74
2023/04/23 21:05:34;;;;;;;;;;;;;;;12.10;48.12;99767.80;215773;1257;61381;-73
2023/04/23 21:10:27;;;;;;;;;;;;;;;12.02;48.37;99767.50;215756;1254;61243;-74
2023/04/23 21:15:20;;;;;;;;;;;;;;;11.95;48.84;99763.70;215591;1254;157156;-73
2023/04/23 21:20:13;;;;;;;;;;;;;;;11.84;49.14;99761.98;215738;1253;61260;-74
2023/04/23 21:25:06;;;;;;;;;;;;;;;11.77;49.54;99757.31;215873;1253;61350;-75
2023/04/23 21:30:00;;;;;;;;;;;;;;;11.68;49.81;99752.65;215826;1253;61390;-75
2023/04/23 21:34:53;;;;;;;;;;;;;;;11.61;50.28;99748.68;215832;1253;74370;-75
2023/04/23 21:39:46;;;;;;;;;;;;;;;11.53;50.61;99754.41;215968;1257;61222;-75
2023/04/23 21:44:39;;;;;;;;;;;;;;;11.49;50.74;99758.42;215877;1253;61353;-75
2023/04/23 21:49:32;;;;;;;;;;;;;;;11.45;50.92;99758.77;216325;1254;59332;-75
2023/04/23 21:54:25;;;;;;;;;;;;;;;11.36;51.24;99761.57;215870;1253;61269;-75
2023/04/23 21:59:19;;;;;;;;;;;;;;;11.26;51.53;99757.60;215930;1254;62107;-75
2023/04/23 22:04:12;;;;;;;;;;;;;;;11.22;51.70;99755.52;216078;1253;61269;-74
2023/04/23 22:09:06;;;;;;;;;;;;;;;11.23;51.45;99753.59;216200;1254;65762;-74
2023/04/23 22:13:59;;;;;;;;;;;;;;;11.22;51.93;99760.20;215810;1254;61359;-74
2023/04/23 22:18:52;;;;;;;;;;;;;;;11.16;51.88;99774.77;215557;1254;73325;-74
2023/04/23 22:23:45;;;;;;;;;;;;;;;11.12;52.09;99788.30;215719;1253;71069;-75
2023/04/23 22:28:37;;;;;;;;;;;;;;;11.12;52.03;99787.09;216265;1254;61472;-75
2023/04/23 22:33:30;;;;;;;;;;;;;;;11.05;52.11;99784.14;216132;1253;61361;-74
2023/04/23 22:38:24;;;;;;;;;;;;;;;11.00;51.95;99782.58;215983;1257;61435;-74
2023/04/23 22:43:17;;;;;;;;;;;;;;;10.92;51.97;99770.27;216363;1254;74317;-74
2023/04/23 22:48:10;;;;;;;;;;;;;;;10.87;51.98;99764.89;216093;1254;61266;-74
2023/04/23 22:53:03;;;;;;;;;;;;;;;10.79;51.98;99764.37;215976;1256;61309;-74
2023/04/23 22:57:55;;;;;;;;;;;;;;;10.71;52.20;99758.29;215887;1253;65707;-74
2023/04/23 23:02:48;;;;;;;;;;;;;;;10.62;52.52;99759.66;215885;1253;62014;-73
2023/04/23 23:07:41;;;;;;;;;;;;;;;10.53;52.68;99756.52;215932;1254;62427;-74
2023/04/23 23:12:35;;;;;;;;;;;;;;;10.51;52.83;99750.11;215972;1254;61260;-74
2023/04/23 23:17:28;;;;;;;;;;;;;;;10.46;52.96;99740.91;215896;1254;61359;-74
2023/04/23 23:22:21;;;;;;;;;;;;;;;10.36;53.13;99734.33;216075;1253;67590;-74
2023/04/23 23:27:13;;;;;;;;;;;;;;;10.28;53.27;99729.95;215998;1253;61247;-73
2023/04/23 23:32:06;;;;;;;;;;;;;;;10.22;53.19;99724.38;215923;1253;61381;-74
2023/04/23 23:36:59;;;;;;;;;;;;;;;10.16;53.39;99722.12;215949;1253;61411;-74
2023/04/23 23:41:52;;;;;;;;;;;;;;;10.09;53.53;99720.02;216117;1254;61197;-75
2023/04/23 23:46:44;;;;;;;;;;;;;;;10.04;53.70;99715.34;216038;1254;61265;-74
2023/04/23 23:51:37;;;;;;;;;;;;;;;10.01;54.11;99711.69;216144;1256;61362;-74
2023/04/23 23:56:30;;;;;;;;;;;;;;;9.94;54.20;99705.08;215912;1254;61352;-74
